Observations for STORNOWAY, United Kingdom (EGPO)

EGPO 112250Z AUTO 17016KT 9999 OVC030/// 10/07 Q1014
EGPO 112220Z AUTO 17016KT 9999 BKN031/// 10/07 Q1014
EGPO 112150Z AUTO 17013KT 9999 FEW039/// 10/07 Q1014
EGPO 112120Z AUTO 19017KT 9999 BKN026/// BKN033/// 10/08 Q1014  
EGPO 112050Z 20022KT 9999 VCSH FEW018 SCT026 10/08 Q1014
EGPO 112020Z 20019KT 9999 FEW018 10/08 Q1014
EGPO 111950Z 20015KT 9999 VCSH FEW018 10/08 Q1014   
EGPO 111920Z 20006KT 9999 -RA FEW018 SCT045 10/08 Q1013 
EGPO 111850Z 18013KT 9999 -RA FEW018 SCT045 10/08 Q1014 
EGPO 111820Z 19015KT 9999 -RA FEW018 SCT044 10/08 Q1013 
EGPO 111750Z 18016KT 9999 -RA FEW018 SCT048 11/08 Q1013 
EGPO 111720Z 18015KT 9999 FEW018 11/07 Q1013
EGPO 111650Z 19011KT 9999 FEW018 10/08 Q1013
EGPO 111620Z 19007KT 9999 FEW018 SCT045 10/08 Q1013 
EGPO 111550Z 18008KT 9999 FEW018 SCT045 10/08 Q1014 
EGPO 111520Z 18008KT 9999 FEW018 SCT045 10/08 Q1014 
EGPO 111450Z 18011KT 9999 FEW018 SCT045 10/08 Q1014 
EGPO 111420Z 17014KT 9999 FEW018 SCT030 10/08 Q1014 
EGPO 111350Z 16013KT 9999 FEW025 11/08 Q1015
EGPO 111320Z 15010KT 9999 FEW029 11/07 Q1015
EGPO 111250Z 17009KT 9999 FEW028 10/08 Q1015
EGPO 111220Z 17012KT 9999 FEW028 10/08 Q1015
EGPO 111150Z 16010KT 9999 FEW028 11/07 Q1015
EGPO 111120Z 16012KT 9999 FEW020 10/08 Q1015
EGPO 111050Z 16009KT 9999 FEW020 10/08 Q1015
EGPO 111020Z 16009KT 9999 FEW018 09/07 Q1015
EGPO 110950Z 14007KT 9999 FEW018 09/07 Q1016
EGPO 110920Z 17012KT 9999 FEW011 09/07 Q1016
EGPO 110850Z 16011KT 9999 FEW011 09/07 Q1016
EGPO 110820Z 17014KT 9999 FEW008 09/06 Q1016
EGPO 110750Z 17014KT 9999 FEW008 SCT022 09/07 Q1016 
EGPO 110720Z 17017KT 9999 FEW008 BKN018 09/07 Q1016 
EGPO 110650Z 16017KT 9999 FEW007 OVC014 10/07 Q1016 
EGPO 110620Z 16014KT 9999 FEW007 OVC014 10/07 Q1016 
EGPO 110550Z 17012KT 9999 FEW007 BKN012 09/07 Q1017 
EGPO 110520Z 17018KT 9999 FEW007 BKN012 09/07 Q1017 
EGPO 110450Z AUTO 18017KT 9999 BKN013/// OVC019/// 09/07 Q1017  
EGPO 110420Z AUTO 17014KT 9999 OVC012/// 09/07 Q1017
EGPO 110350Z AUTO 18014KT 9999 OVC011/// 09/07 Q1017
EGPO 110320Z AUTO 18013KT 9999 OVC010/// 09/07 Q1018
EGPO 110250Z AUTO 18012KT 9999 OVC009/// 09/07 Q1018
EGPO 110220Z AUTO 17014KT 9999 OVC013/// 09/06 Q1018
EGPO 110150Z AUTO 18017KT 9999 OVC013/// 08/06 Q1018
EGPO 110120Z AUTO 18017KT 9999 OVC015/// 08/06 Q1018
EGPO 110050Z AUTO 17018KT 9999 BKN015/// OVC021/// 08/06 Q1019  
EGPO 110020Z AUTO 17016KT 9999 BKN015/// OVC023/// 08/06 Q1019  
EGPO 102350Z AUTO 18017KT 9999 BKN017/// OVC036/// 08/05 Q1019  
EGPO 102320Z AUTO 17017KT 9999 OVC022/// 08/05 Q1020
EGPO 102250Z AUTO 18016KT 9999 OVC023/// 08/04 Q1020
EGPO 102220Z AUTO 18017KT 9999 BKN024/// OVC030/// 08/04 Q1020  
EGPO 102150Z AUTO 17016KT 9999 OVC032/// 08/04 Q1020